createdAt,value
2022-10-24T00:46:45.447Z,23.50
2022-10-24T00:49:18.024Z,23.40
2022-10-24T00:51:51.038Z,23.40
2022-10-24T00:54:20.297Z,23.40
2022-10-24T00:57:09.003Z,23.40
2022-10-24T00:59:41.332Z,23.40
2022-10-24T01:47:41.029Z,23.40
2022-10-24T01:50:14.592Z,23.40
2022-10-24T01:52:45.986Z,23.40
2022-10-24T01:55:15.067Z,23.30
2022-10-24T01:57:43.477Z,23.40
2022-10-24T02:47:15.288Z,23.30
2022-10-24T02:49:44.286Z,23.40
2022-10-24T02:52:12.593Z,23.30
2022-10-24T02:54:40.807Z,23.30
2022-10-24T02:57:09.109Z,23.30
2022-10-24T02:59:37.411Z,23.40
2022-10-24T03:47:30.442Z,23.30
2022-10-24T03:49:58.735Z,23.30
2022-10-24T03:52:27.106Z,23.30
2022-10-24T03:54:55.882Z,23.30
2022-10-24T03:57:24.691Z,23.30
2022-10-24T03:59:53.231Z,23.30
2022-10-24T04:31:23.636Z,23.20
2022-10-24T04:33:52.908Z,23.20
2022-10-24T04:36:22.597Z,23.40
2022-10-24T04:38:52.095Z,23.20
2022-10-24T04:41:22.027Z,23.30
2022-10-24T04:43:50.929Z,23.20
2022-10-24T04:46:20.786Z,23.30
2022-10-24T04:48:49.457Z,23.30
2022-10-24T04:51:21.607Z,23.60
2022-10-24T04:53:51.821Z,23.30
2022-10-24T04:56:20.959Z,23.30
2022-10-24T04:58:49.483Z,23.30
2022-10-24T05:01:18.627Z,23.30
2022-10-24T05:03:48.360Z,23.30
2022-10-24T05:06:16.833Z,23.30
2022-10-24T05:08:45.110Z,23.30
2022-10-24T05:11:13.436Z,23.40
2022-10-24T05:13:42.313Z,23.40
2022-10-24T05:16:10.518Z,23.40
2022-10-24T05:18:39.146Z,23.30
2022-10-24T05:21:09.286Z,23.30
2022-10-24T05:23:38.175Z,23.30
2022-10-24T05:26:07.424Z,23.30
2022-10-24T05:28:36.599Z,23.30
2022-10-24T05:31:05.733Z,23.50
2022-10-24T05:33:34.054Z,23.30
2022-10-24T05:36:03.189Z,23.30
2022-10-24T05:38:33.515Z,23.20
2022-10-24T05:41:01.963Z,23.30
2022-10-24T05:43:31.046Z,23.20
2022-10-24T05:45:59.564Z,23.20
2022-10-24T05:48:27.765Z,23.20
2022-10-24T05:50:59.380Z,23.20
2022-10-24T05:53:28.345Z,23.20
2022-10-24T05:55:57.974Z,23.40
2022-10-24T05:58:27.775Z,23.20
2022-10-24T06:00:56.557Z,23.20
2022-10-24T06:03:25.451Z,23.20
2022-10-24T06:05:54.831Z,23.20
2022-10-24T06:08:23.292Z,23.20
2022-10-24T06:10:53.868Z,23.20
2022-10-24T06:13:23.631Z,23.30
2022-10-24T06:15:52.340Z,23.30
2022-10-24T06:18:21.137Z,23.20
2022-10-24T06:20:52.788Z,23.20
2022-10-24T06:23:25.427Z,23.20
2022-10-24T06:25:54.695Z,23.20
2022-10-24T06:28:24.771Z,23.20
2022-10-24T06:30:54.838Z,23.20
2022-10-24T06:33:23.494Z,23.30
2022-10-24T06:35:51.856Z,23.20
2022-10-24T06:38:20.018Z,23.20
2022-10-24T06:40:48.150Z,23.40
2022-10-24T06:43:16.373Z,23.30
2022-10-24T06:45:46.331Z,23.40
2022-10-24T06:48:15.317Z,23.40
2022-10-24T06:50:44.419Z,23.40
2022-10-24T10:46:17.751Z,23.20
2022-10-24T10:49:00.765Z,23.20
2022-10-24T10:51:40.463Z,23.30
2022-10-24T10:54:26.197Z,23.20
2022-10-24T10:57:01.147Z,23.20
2022-10-24T10:59:47.366Z,23.20
2022-10-24T11:02:49.393Z,23.30
2022-10-24T11:05:37.290Z,23.20
2022-10-24T11:08:22.952Z,23.20
2022-10-24T11:10:55.124Z,23.30
2022-10-24T11:13:30.479Z,23.30
2022-10-24T11:16:08.465Z,23.30
2022-10-24T11:18:43.321Z,23.30
2022-10-24T11:21:13.963Z,23.30
2022-10-24T11:23:47.903Z,23.30
2022-10-24T11:26:22.626Z,23.30
2022-10-24T11:28:58.476Z,23.30
2022-10-24T11:31:31.284Z,23.30
2022-10-24T11:34:07.030Z,23.20
2022-10-24T11:36:42.869Z,23.20
2022-10-24T11:39:17.514Z,23.20
2022-10-24T11:41:54.883Z,23.20
2022-10-24T11:44:41.500Z,23.30
2022-10-24T11:47:42.848Z,23.30
2022-10-24T11:50:25.517Z,23.30
2022-10-24T11:53:00.001Z,23.50
2022-10-24T11:55:38.316Z,23.20
2022-10-24T11:58:14.454Z,23.20
2022-10-24T12:01:11.048Z,23.30
2022-10-24T12:04:07.980Z,23.20
2022-10-24T12:07:16.284Z,23.20
2022-10-24T12:10:11.115Z,23.20
2022-10-24T12:13:16.986Z,23.20
2022-10-24T12:15:55.197Z,23.10
2022-10-24T12:18:34.066Z,23.20
2022-10-24T12:21:06.720Z,23.20
2022-10-24T12:23:36.715Z,23.20
2022-10-24T12:26:08.567Z,23.20
2022-10-24T12:28:38.498Z,23.20
2022-10-24T12:31:25.341Z,23.20
2022-10-24T12:34:34.405Z,23.20
2022-10-24T12:37:09.276Z,23.20
2022-10-24T12:39:44.501Z,23.20
2022-10-24T12:42:38.195Z,23.20
2022-10-24T12:45:29.903Z,23.30
2022-10-24T12:48:35.794Z,23.30
2022-10-24T12:51:28.711Z,23.30
2022-10-24T12:54:39.425Z,23.30
2022-10-24T12:57:28.939Z,23.30
2022-10-24T12:59:59.405Z,23.30
2022-10-24T13:02:49.491Z,23.30
2022-10-24T13:05:48.931Z,23.30
2022-10-24T13:08:37.119Z,23.30
2022-10-24T13:11:25.049Z,23.40
2022-10-24T13:14:16.878Z,23.30
2022-10-24T13:17:01.873Z,23.30
2022-10-24T13:19:31.392Z,23.30
2022-10-24T13:22:01.918Z,23.30
2022-10-24T13:24:36.669Z,23.30
2022-10-24T13:27:27.636Z,23.30
2022-10-24T13:30:27.002Z,23.30
2022-10-24T13:33:41.050Z,23.30
2022-10-24T13:36:17.814Z,23.30
2022-10-24T13:38:52.044Z,23.30
2022-10-24T13:41:29.713Z,23.30
2022-10-24T13:44:04.106Z,23.30
2022-10-24T13:46:53.279Z,23.30
2022-10-24T13:49:31.578Z,23.20
2022-10-24T13:52:09.352Z,23.20
2022-10-24T13:54:39.293Z,23.20
2022-10-24T13:57:24.462Z,23.30
2022-10-24T13:59:57.536Z,23.30
2022-10-24T14:02:32.491Z,23.20
2022-10-24T14:05:02.132Z,23.20
2022-10-24T14:07:33.682Z,23.00
2022-10-24T14:10:09.319Z,23.20
2022-10-24T14:12:41.562Z,23.20
2022-10-24T14:15:20.819Z,23.20
2022-10-24T14:18:00.431Z,23.10
2022-10-24T14:20:32.821Z,23.10
2022-10-24T14:23:01.522Z,23.20
2022-10-24T14:25:35.215Z,23.20
2022-10-24T14:28:12.093Z,23.20
2022-10-24T14:30:40.460Z,23.20
2022-10-24T14:33:25.658Z,23.30
2022-10-24T14:35:57.882Z,23.30
2022-10-24T14:38:28.671Z,23.30
2022-10-24T14:41:08.215Z,23.30
2022-10-24T14:43:42.275Z,23.30
2022-10-24T14:46:35.260Z,23.30
2022-10-24T14:49:22.662Z,23.30
2022-10-24T14:54:32.327Z,22.70
2022-10-24T14:57:02.038Z,23.30
2022-10-24T14:59:35.350Z,23.30
2022-10-24T15:02:16.005Z,23.30
2022-10-24T15:04:47.094Z,23.30
2022-10-24T15:07:31.289Z,23.30
2022-10-24T15:10:04.270Z,23.30
2022-10-24T15:12:41.092Z,23.30
2022-10-24T15:15:27.713Z,23.20
2022-10-24T15:18:08.106Z,23.30
2022-10-24T15:20:41.639Z,22.70
2022-10-24T15:23:22.756Z,23.30
2022-10-24T15:26:02.319Z,23.50
2022-10-24T15:28:44.114Z,23.40
2022-10-24T15:31:13.590Z,23.40
2022-10-24T15:33:42.480Z,23.40
2022-10-24T15:36:22.373Z,23.50
2022-10-24T15:38:55.015Z,23.40
2022-10-24T15:41:23.338Z,23.90
2022-10-24T15:43:51.633Z,23.40
2022-10-24T15:46:20.089Z,23.40
2022-10-24T15:48:48.353Z,23.40
2022-10-24T15:51:20.775Z,23.40
2022-10-24T15:53:50.359Z,23.40
2022-10-24T15:56:19.125Z,23.50
2022-10-24T16:01:28.058Z,23.50
2022-10-24T16:03:57.675Z,23.50
2022-10-24T16:06:28.234Z,23.40
2022-10-24T16:08:57.110Z,23.50
2022-10-24T16:11:25.564Z,23.50
2022-10-24T16:13:53.922Z,23.50
2022-10-24T16:16:22.207Z,23.40
2022-10-24T16:18:50.778Z,23.40
2022-10-24T16:21:21.223Z,23.50
2022-10-24T16:26:24.254Z,23.50
2022-10-24T16:28:52.861Z,23.60
2022-10-24T16:31:23.466Z,23.60
2022-10-24T16:33:52.360Z,23.50
2022-10-24T16:36:23.887Z,23.60
2022-10-24T16:38:54.843Z,23.70
2022-10-24T16:41:25.269Z,24.00
2022-10-24T16:43:57.207Z,23.80
2022-10-24T16:46:28.333Z,23.80
2022-10-24T16:48:57.171Z,23.80
2022-10-24T16:51:32.091Z,24.00
2022-10-24T16:54:04.132Z,24.10
2022-10-24T16:56:32.623Z,24.20
2022-10-24T16:59:01.143Z,24.30
2022-10-24T17:01:29.774Z,24.30
2022-10-24T17:03:58.187Z,24.30
2022-10-24T17:06:26.385Z,24.50
2022-10-24T17:08:54.566Z,24.50
2022-10-24T17:11:44.396Z,24.50
2022-10-24T17:14:13.981Z,24.50
2022-10-24T17:16:43.476Z,24.60
2022-10-24T17:19:16.080Z,24.70
2022-10-24T17:21:48.100Z,24.80
2022-10-24T17:24:20.261Z,24.80
2022-10-24T17:26:52.321Z,24.80
2022-10-24T17:29:27.168Z,24.70
2022-10-24T17:31:56.470Z,24.70
2022-10-24T17:34:25.823Z,24.70
2022-10-24T17:37:03.740Z,24.70
2022-10-24T17:39:41.603Z,24.90
2022-10-24T17:42:14.844Z,24.90
2022-10-24T17:44:44.225Z,24.80
2022-10-24T17:47:13.689Z,24.80
2022-10-24T17:49:43.692Z,24.80
2022-10-24T17:52:14.104Z,24.70
2022-10-24T17:54:45.636Z,24.70
2022-10-24T17:57:15.910Z,24.70
2022-10-24T17:59:44.578Z,24.70
2022-10-24T18:02:14.806Z,24.60
2022-10-24T18:04:44.964Z,24.70
2022-10-24T18:07:14.012Z,24.50
2022-10-24T18:09:42.401Z,24.50
2022-10-24T18:12:10.543Z,24.50
2022-10-24T18:14:40.083Z,24.40
2022-10-24T18:17:08.463Z,24.50
2022-10-24T18:19:37.098Z,24.50
2022-10-24T18:22:05.473Z,24.50
2022-10-24T18:24:33.550Z,24.50
2022-10-24T18:27:01.779Z,24.50
2022-10-24T18:29:30.261Z,24.50
2022-10-24T18:32:00.291Z,24.40
2022-10-24T18:34:28.709Z,24.40
2022-10-24T18:36:57.382Z,24.40
2022-10-24T18:39:29.126Z,24.40
2022-10-24T18:42:05.732Z,24.40
2022-10-24T18:44:36.386Z,24.40
2022-10-24T18:47:09.406Z,24.40
2022-10-24T18:49:38.776Z,24.30
2022-10-24T18:52:18.023Z,24.30
2022-10-24T18:54:59.056Z,24.30
2022-10-24T18:57:29.736Z,24.60
2022-10-24T18:59:59.761Z,24.30
2022-10-24T19:02:36.138Z,24.30
2022-10-24T19:05:18.602Z,24.30
2022-10-24T19:07:48.517Z,24.30
2022-10-24T19:10:22.414Z,24.30
2022-10-24T19:12:51.248Z,24.30
2022-10-24T19:15:21.021Z,24.40
2022-10-24T19:17:52.225Z,24.30
2022-10-24T19:20:23.424Z,24.30
2022-10-24T19:22:52.452Z,24.40
2022-10-24T19:25:21.347Z,24.40
2022-10-24T19:27:50.297Z,24.40
2022-10-24T19:30:18.627Z,24.40
2022-10-24T19:32:47.967Z,24.40
2022-10-24T19:35:18.759Z,24.30
2022-10-24T19:37:47.929Z,24.40
2022-10-24T19:40:16.558Z,24.40
2022-10-24T19:42:45.071Z,24.30
2022-10-24T19:45:13.367Z,24.40
2022-10-24T19:47:42.398Z,24.40
2022-10-24T19:50:12.621Z,24.30
2022-10-24T19:52:43.912Z,24.40
2022-10-24T19:55:12.441Z,24.40
2022-10-24T19:57:40.653Z,24.30
2022-10-24T20:00:11.482Z,24.40
2022-10-24T20:02:43.391Z,24.30
2022-10-24T20:05:12.410Z,24.30
2022-10-24T20:07:42.138Z,24.30
2022-10-24T20:10:10.738Z,24.30
2022-10-24T20:12:39.028Z,24.30
2022-10-24T20:15:09.255Z,24.30
2022-10-24T20:17:37.611Z,24.40
2022-10-24T20:20:09.453Z,24.40
2022-10-24T20:22:37.649Z,24.80
2022-10-24T20:25:08.662Z,24.40
2022-10-24T20:27:38.731Z,24.30
2022-10-24T20:30:09.101Z,24.40
2022-10-24T20:32:37.557Z,24.30
2022-10-24T20:35:06.796Z,24.40
2022-10-24T20:37:34.973Z,24.50
2022-10-24T20:40:03.174Z,24.40
2022-10-24T20:42:32.703Z,24.30
2022-10-24T20:45:00.885Z,24.40
2022-10-24T20:47:30.042Z,24.40
2022-10-24T20:49:58.326Z,24.40
2022-10-24T20:52:26.642Z,24.40
2022-10-24T20:54:55.084Z,24.30
2022-10-24T20:57:23.308Z,24.30
2022-10-24T20:59:53.054Z,24.30
2022-10-24T21:02:21.344Z,24.30
2022-10-24T21:04:49.877Z,24.30
2022-10-24T21:07:18.110Z,24.30
2022-10-24T21:09:46.224Z,24.30
2022-10-24T21:12:14.488Z,24.20
2022-10-24T21:14:43.132Z,24.20
2022-10-24T21:17:12.635Z,24.20
2022-10-24T21:19:41.178Z,24.10
2022-10-24T21:22:09.866Z,24.10
2022-10-24T21:24:38.392Z,24.10
2022-10-24T21:27:06.796Z,23.90
2022-10-24T21:29:35.401Z,24.10
2022-10-24T21:32:03.614Z,24.00
2022-10-24T21:34:34.685Z,24.00
2022-10-24T21:37:04.155Z,24.00
2022-10-24T21:39:32.617Z,24.00
2022-10-24T21:42:00.842Z,24.00
2022-10-24T21:44:29.016Z,24.00
2022-10-24T21:46:57.411Z,23.90
2022-10-24T21:49:26.990Z,23.90
2022-10-24T21:51:57.333Z,24.00
2022-10-24T21:54:28.604Z,23.90
2022-10-24T21:56:57.487Z,23.90
2022-10-24T21:59:25.814Z,23.90
2022-10-24T22:01:54.467Z,23.90
2022-10-24T22:04:22.998Z,23.90
2022-10-24T22:06:51.564Z,24.00
2022-10-24T22:09:24.004Z,23.70
2022-10-24T22:11:54.526Z,23.90
2022-10-24T22:14:23.537Z,23.90
2022-10-24T22:45:25.109Z,22.90
2022-10-24T22:48:16.145Z,23.80
2022-10-24T22:50:53.749Z,23.80
2022-10-24T22:53:25.845Z,23.80
2022-10-24T22:56:11.877Z,23.80
2022-10-24T22:58:42.035Z,23.80
2022-10-24T23:45:42.399Z,23.60
2022-10-24T23:48:24.740Z,23.60
2022-10-24T23:51:00.903Z,23.60
2022-10-24T23:53:48.748Z,23.70
2022-10-24T23:56:18.874Z,23.70
2022-10-24T23:58:47.612Z,23.70
